Time;durP1;ratioP1;P1;durP2;ratioP2;P2;SDS_P1;SDS_P2;PMS_P1;PMS_P2;Temp;Humidity;BMP_temperature;BMP_pressure;BME280_temperature;BME280_humidity;BME280_pressure;Samples;Min_cycle;Max_cycle;Signal;HPM_P1;HPM_P2
2021/07/21 00:00:37;;;;;;;7.45;5.90;;;;;;;26.03;49.56;94890.13;5048522;28;20067;-74
2021/07/21 00:03:02;;;;;;;10.00;6.05;;;;;;;26.37;49.92;94934.72;5048606;28;20031;-74
2021/07/21 00:05:28;;;;;;;10.63;6.45;;;;;;;26.33;49.55;94920.63;5048703;28;20395;-74
2021/07/21 00:07:54;;;;;;;9.40;6.30;;;;;;;26.38;50.07;94930.69;5048216;28;20025;-74
2021/07/21 00:10:20;;;;;;;10.73;5.95;;;;;;;26.00;50.11;94874.03;5048335;28;20480;-74
2021/07/21 00:15:35;;;;;;;9.38;5.82;;;;;;;26.36;50.20;94933.25;5068150;28;20039;-75
2021/07/21 00:18:15;;;;;;;10.88;6.57;;;;;;;26.32;50.13;94938.31;5067612;28;20031;-74
2021/07/21 00:20:40;;;;;;;11.88;6.28;;;;;;;25.93;50.45;94889.09;5068106;28;20028;-74
2021/07/21 00:23:06;;;;;;;10.77;6.20;;;;;;;26.08;50.87;94896.75;5068272;28;20618;-74
2021/07/21 00:25:31;;;;;;;10.45;6.15;;;;;;;25.68;50.67;94842.63;5051951;28;20025;-74
2021/07/21 00:27:57;;;;;;;12.65;6.57;;;;;;;26.12;50.72;94914.31;5047330;28;20032;-74
2021/07/21 00:30:22;;;;;;;13.15;7.30;;;;;;;25.47;50.68;94806.22;5046434;28;20331;-74
2021/07/21 00:32:49;;;;;;;10.98;6.65;;;;;;;25.83;50.95;94860.69;5046972;28;20487;-74
2021/07/21 00:35:16;;;;;;;10.38;6.95;;;;;;;26.14;50.35;94889.16;5045911;28;20052;-74
2021/07/21 00:37:42;;;;;;;9.80;6.07;;;;;;;26.27;50.92;94928.19;5047388;28;20025;-74
2021/07/21 00:40:08;;;;;;;8.95;6.40;;;;;;;26.18;51.44;94916.94;5047585;28;20056;-75
2021/07/21 00:42:35;;;;;;;10.95;6.60;;;;;;;26.23;51.31;94930.50;5029615;28;20419;-74
2021/07/21 00:45:00;;;;;;;11.45;6.93;;;;;;;26.23;51.44;94930.50;5047363;28;20411;-74
2021/07/21 00:47:25;;;;;;;9.55;6.40;;;;;;;26.25;51.30;94933.47;5062341;28;20029;-74
2021/07/21 00:49:51;;;;;;;13.40;6.55;;;;;;;26.25;51.51;94927.97;5046151;28;20041;-74
2021/07/21 00:52:17;;;;;;;9.57;6.43;;;;;;;26.17;51.47;94910.72;5047477;28;20029;-74
2021/07/21 00:54:43;;;;;;;10.23;6.50;;;;;;;26.23;51.89;94916.09;5047275;28;20778;-74
2021/07/21 00:57:08;;;;;;;11.32;6.75;;;;;;;26.14;52.16;94905.56;5047233;28;20533;-74
2021/07/21 00:59:34;;;;;;;11.73;7.05;;;;;;;26.24;51.76;94915.56;5029315;28;20029;-74
2021/07/21 01:02:00;;;;;;;13.68;6.97;;;;;;;25.63;51.99;94840.72;5047291;28;20712;-74
2021/07/21 01:04:29;;;;;;;10.50;6.40;;;;;;;26.03;51.86;94890.13;5046902;28;20591;-74
2021/07/21 01:06:54;;;;;;;11.93;6.75;;;;;;;25.34;51.79;94800.78;5047009;28;20029;-74
2021/07/21 01:09:20;;;;;;;11.65;7.57;;;;;;;25.99;51.77;94892.47;5046806;28;20039;-74
2021/07/21 01:12:06;;;;;;;10.77;7.13;;;;;;;26.20;51.67;94931.56;5045601;28;20028;-74
2021/07/21 01:14:53;;;;;;;11.85;7.40;;;;;;;26.22;51.69;94926.31;5047012;28;20033;-74
2021/07/21 01:17:35;;;;;;;12.80;7.55;;;;;;;25.21;51.53;94784.38;5046504;28;20422;-74
2021/07/21 01:20:34;;;;;;;12.23;6.75;;;;;;;25.89;51.87;94880.47;5057117;28;20119;-74
2021/07/21 01:23:37;;;;;;;8.35;6.25;;;;;;;26.20;51.68;94926.06;5066474;28;20044;-74
2021/07/21 01:26:08;;;;;;;11.55;6.93;;;;;;;26.02;51.84;94899.63;5065877;28;20033;-74
2021/07/21 01:28:33;;;;;;;9.52;6.47;;;;;;;25.43;51.51;94800.34;5064875;28;20028;-74
2021/07/21 01:30:59;;;;;;;10.40;7.43;;;;;;;26.20;51.74;94926.06;5065669;28;20035;-74
2021/07/21 01:33:24;;;;;;;12.38;7.55;;;;;;;25.05;51.33;94755.38;5065090;28;20465;-74
2021/07/21 01:36:05;;;;;;;12.07;7.30;;;;;;;26.15;51.69;94916.00;5065176;28;20719;-74
2021/07/21 01:38:36;;;;;;;12.25;7.35;;;;;;;25.54;51.96;94832.94;5064425;28;20458;-74
2021/07/21 01:41:13;;;;;;;12.20;7.00;;;;;;;26.00;51.85;94896.66;5049001;28;20080;-74
2021/07/21 01:43:39;;;;;;;12.57;7.32;;;;;;;25.58;51.85;94845.03;5065136;28;20024;-74
2021/07/21 01:46:04;;;;;;;10.30;6.68;;;;;;;25.90;51.91;94897.63;5066266;28;20034;-74
2021/07/21 01:48:31;;;;;;;12.60;7.07;;;;;;;26.17;52.06;94929.88;5064011;28;20081;-74
2021/07/21 01:50:57;;;;;;;11.38;7.50;;;;;;;25.68;51.82;94862.50;5048144;28;20066;-75
2021/07/21 01:53:22;;;;;;;11.05;7.50;;;;;;;26.15;51.96;94926.94;5064618;28;20066;-74
2021/07/21 01:55:48;;;;;;;11.88;7.35;;;;;;;25.45;51.48;94814.22;5066138;28;20036;-74
2021/07/21 01:58:13;;;;;;;11.80;7.88;;;;;;;26.11;51.71;94910.09;5066116;28;20028;-74
2021/07/21 02:00:39;;;;;;;11.15;6.88;;;;;;;25.55;51.57;94831.69;5059933;28;20025;-74
2021/07/21 02:03:05;;;;;;;12.93;7.35;;;;;;;25.56;51.70;94835.88;5045021;28;20052;-74
2021/07/21 02:05:30;;;;;;;10.70;6.70;;;;;;;26.13;51.64;94926.00;5036530;28;20495;-74
2021/07/21 02:07:56;;;;;;;11.85;7.15;;;;;;;25.96;51.83;94896.25;5060346;28;20544;-74
2021/07/21 02:10:24;;;;;;;11.57;7.00;;;;;;;26.14;51.54;94928.19;5043788;28;20351;-74
2021/07/21 02:12:52;;;;;;;10.55;7.68;;;;;;;26.10;51.68;94927.81;5043769;28;20056;-73
2021/07/21 02:15:18;;;;;;;11.48;7.38;;;;;;;26.08;51.67;94924.84;5045849;28;20048;-73
2021/07/21 02:17:43;;;;;;;10.95;7.15;;;;;;;25.92;51.79;94904.03;5045468;28;20505;-74
2021/07/21 02:20:09;;;;;;;11.50;7.28;;;;;;;25.73;51.49;94877.34;5045167;28;20479;-75
2021/07/21 02:22:35;;;;;;;9.80;6.72;;;;;;;25.85;51.64;94901.94;5044237;28;20029;-73
2021/07/21 02:25:01;;;;;;;10.35;7.13;;;;;;;26.08;51.70;94924.84;5060210;28;20090;-73
2021/07/21 02:27:26;;;;;;;11.00;7.10;;;;;;;25.98;51.70;94918.34;5044963;28;20793;-74
2021/07/21 02:29:52;;;;;;;11.15;7.30;;;;;;;26.08;51.83;94941.25;5050309;28;20024;-73
2021/07/21 02:32:32;;;;;;;12.48;8.20;;;;;;;25.96;51.77;94923.63;5065701;28;20549;-73
2021/07/21 02:34:58;;;;;;;10.90;7.28;;;;;;;26.10;51.54;94933.28;5065475;28;20055;-74
2021/07/21 02:37:23;;;;;;;12.55;7.57;;;;;;;25.94;51.75;94904.25;5063388;28;20029;-74
2021/07/21 02:39:49;;;;;;;10.60;6.82;;;;;;;25.77;51.68;94883.22;5065195;28;20063;-74
2021/07/21 02:42:15;;;;;;;13.60;7.07;;;;;;;26.09;51.67;94937.25;5067928;28;20052;-72
2021/07/21 02:44:41;;;;;;;11.75;7.43;;;;;;;26.14;51.36;94932.94;5072089;28;20071;-74
2021/07/21 02:47:07;;;;;;;12.23;7.38;;;;;;;26.11;51.36;94932.00;5071718;28;20803;-73
2021/07/21 02:49:32;;;;;;;13.32;7.05;;;;;;;26.07;51.74;94939.81;5072730;28;20028;-75
2021/07/21 02:52:02;;;;;;;10.48;6.75;;;;;;;26.07;51.74;94939.81;5067547;28;20033;-75
2021/07/21 02:54:31;;;;;;;;;;;;;;;26.07;51.58;94941.78;5053334;28;20083;-75
2021/07/21 02:57:00;;;;;;;13.50;7.50;;;;;;;26.01;51.63;94930.97;5045428;28;19913;-74
2021/07/21 02:59:35;;;;;;;11.38;7.32;;;;;;;25.37;51.58;94862.59;5043909;28;20481;-75
2021/07/21 03:02:00;;;;;;;10.25;6.75;;;;;;;25.98;51.34;94937.50;5052463;28;20085;-73
2021/07/21 03:04:26;;;;;;;12.65;6.78;;;;;;;25.46;51.35;94881.31;5064345;28;20025;-76
2021/07/21 03:06:52;;;;;;;11.45;7.18;;;;;;;26.00;51.33;94945.19;5064488;28;20021;-73
2021/07/21 03:09:18;;;;;;;12.57;7.47;;;;;;;25.98;51.18;94948.44;5065847;28;20020;-73
2021/07/21 03:11:44;;;;;;;11.77;7.30;;;;;;;25.98;51.49;94953.91;5075220;28;20510;-74
2021/07/21 03:14:10;;;;;;;10.40;7.20;;;;;;;25.91;50.90;94940.88;5044526;28;20032;-73
2021/07/21 03:16:38;;;;;;;10.10;7.10;;;;;;;25.94;50.79;94964.44;5044508;28;20028;-74
2021/07/21 03:19:05;;;;;;;11.75;7.13;;;;;;;25.42;50.50;94869.97;5034395;28;20021;-74
2021/07/21 03:21:30;;;;;;;10.85;7.05;;;;;;;25.24;50.83;94859.13;5061640;28;20229;-73
2021/07/21 03:23:56;;;;;;;12.55;8.32;;;;;;;25.35;50.56;94870.56;5064274;28;20020;-74
2021/07/21 03:26:21;;;;;;;12.95;7.50;;;;;;;25.63;50.60;94922.75;5047274;28;20035;-76
2021/07/21 03:28:51;;;;;;;9.32;7.20;;;;;;;25.80;50.43;94943.81;5027136;28;20029;-73
2021/07/21 03:31:17;;;;;;;10.10;6.90;;;;;;;25.97;50.28;94963.38;5027388;28;20029;-74
2021/07/21 03:33:44;;;;;;;11.77;7.70;;;;;;;25.97;50.20;94979.81;5047196;28;20047;-74
2021/07/21 03:36:10;;;;;;;13.13;7.78;;;;;;;25.85;49.83;94970.34;5047564;28;20097;-74
2021/07/21 03:38:35;;;;;;;12.57;7.53;;;;;;;25.71;49.64;94950.97;5049359;28;20506;-74
2021/07/21 03:41:01;;;;;;;10.75;6.90;;;;;;;25.95;49.88;94987.81;5047681;28;20057;-74
2021/07/21 03:43:26;;;;;;;11.55;8.27;;;;;;;25.93;49.84;94990.34;5047314;28;20029;-74
2021/07/21 03:45:52;;;;;;;11.57;6.90;;;;;;;25.91;49.67;94990.13;5047230;28;20116;-74
2021/07/21 03:48:17;;;;;;;12.07;7.25;;;;;;;25.91;49.89;94998.34;5030274;28;20041;-74
2021/07/21 03:50:43;;;;;;;12.07;7.30;;;;;;;25.90;49.89;95002.34;5047092;28;20040;-74
2021/07/21 03:53:08;;;;;;;10.27;6.95;;;;;;;25.49;49.49;94934.97;5048801;28;20029;-74
2021/07/21 03:55:36;;;;;;;13.23;7.38;;;;;;;25.90;49.43;94991.41;5048585;28;20531;-74
2021/07/21 03:58:01;;;;;;;11.70;7.43;;;;;;;25.91;49.14;95001.06;5048198;28;20029;-74
2021/07/21 04:00:27;;;;;;;11.75;7.43;;;;;;;25.84;49.10;94988.03;5053381;28;20069;-74
2021/07/21 04:02:54;;;;;;;10.52;7.07;;;;;;;26.00;48.92;95005.38;5068364;28;20086;-74
2021/07/21 04:05:20;;;;;;;11.35;7.30;;;;;;;25.92;48.79;95008.03;5067098;28;20141;-74
2021/07/21 04:07:45;;;;;;;9.65;7.05;;;;;;;25.80;48.67;94982.13;5063258;28;20142;-74
2021/07/21 04:10:11;;;;;;;10.30;7.07;;;;;;;25.98;48.77;95019.59;5047133;28;20106;-74
2021/07/21 04:12:42;;;;;;;10.45;8.25;;;;;;;25.71;48.59;94964.66;5064197;28;20733;-74
2021/07/21 04:15:09;;;;;;;10.43;7.00;;;;;;;25.90;48.79;94990.66;5056391;28;20032;-73
2021/07/21 04:17:35;;;;;;;10.20;7.18;;;;;;;25.46;48.48;94936.72;5047947;28;20033;-74
2021/07/21 04:20:00;;;;;;;10.73;7.18;;;;;;;24.90;48.49;94848.03;5046906;28;20060;-72
2021/07/21 04:22:26;;;;;;;11.10;7.20;;;;;;;26.07;48.31;95010.22;5040824;28;20028;-71
2021/07/21 04:24:51;;;;;;;10.60;7.43;;;;;;;26.13;48.35;95032.75;5064041;28;20387;-71
2021/07/21 04:27:17;;;;;;;11.73;7.50;;;;;;;26.00;48.47;95003.38;5043027;28;20036;-71
2021/07/21 04:29:45;;;;;;;11.73;7.50;;;;;;;26.06;48.13;95004.00;5062026;28;20037;-71
2021/07/21 04:32:12;;;;;;;10.02;6.65;;;;;;;25.73;47.76;94949.19;5061713;28;20403;-72
2021/07/21 04:34:37;;;;;;;10.32;6.85;;;;;;;26.14;48.07;95009.59;5064840;28;20032;-74
2021/07/21 04:37:03;;;;;;;12.13;7.28;;;;;;;26.22;47.79;95021.38;5076832;28;20024;-72
2021/07/21 04:39:28;;;;;;;10.18;7.30;;;;;;;25.74;47.67;94958.13;5064713;28;20084;-73
2021/07/21 04:41:57;;;;;;;10.68;6.90;;;;;;;25.47;47.59;94908.13;5059643;28;20437;-71
2021/07/21 04:44:22;;;;;;;10.13;7.35;;;;;;;25.51;47.57;94910.56;5062573;28;20025;-71
2021/07/21 04:46:48;;;;;;;11.57;7.65;;;;;;;26.24;47.44;95014.13;5076838;28;20490;-71
2021/07/21 04:49:17;;;;;;;12.05;7.43;;;;;;;26.10;47.34;94998.97;5063351;28;20027;-74
2021/07/21 04:51:43;;;;;;;11.85;7.10;;;;;;;25.00;46.94;94862.78;5056748;28;20029;-75
2021/07/21 04:54:08;;;;;;;11.05;7.00;;;;;;;26.27;47.25;95029.47;5061414;28;20672;-72
2021/07/21 04:56:34;;;;;;;9.38;6.97;;;;;;;25.77;47.13;94971.50;5061918;28;20153;-73
2021/07/21 04:59:00;;;;;;;12.05;7.70;;;;;;;26.27;47.02;95012.31;5066652;28;20032;-72
2021/07/21 05:01:25;;;;;;;9.82;6.88;;;;;;;25.65;46.62;94921.00;5063803;28;20039;-72
2021/07/21 05:03:54;;;;;;;10.32;7.28;;;;;;;26.37;46.90;95027.84;5062127;28;20017;-74
2021/07/21 05:06:21;;;;;;;11.90;7.20;;;;;;;26.35;46.72;95035.81;5062356;28;20450;-73
2021/07/21 05:08:46;;;;;;;10.38;7.45;;;;;;;25.81;46.35;94956.25;5065086;28;20027;-73
2021/07/21 05:11:12;;;;;;;12.38;7.97;;;;;;;26.36;46.58;95037.31;5060811;28;20021;-75
2021/07/21 05:13:40;;;;;;;10.43;7.50;;;;;;;25.73;46.52;94943.00;5064889;28;20028;-75
2021/07/21 05:16:07;;;;;;;11.75;6.85;;;;;;;26.38;46.60;95051.19;5061261;28;20033;-73
2021/07/21 05:18:32;;;;;;;10.93;7.07;;;;;;;26.37;46.50;95033.31;5061461;28;20048;-73
2021/07/21 05:20:57;;;;;;;9.88;7.20;;;;;;;26.41;46.49;95050.13;5061158;28;20024;-73
2021/07/21 05:23:23;;;;;;;11.55;7.75;;;;;;;26.47;46.62;95048.03;5078158;28;20161;-73
2021/07/21 05:25:49;;;;;;;11.60;6.72;;;;;;;26.26;46.41;95032.75;5063723;28;20078;-74
2021/07/21 05:28:14;;;;;;;10.63;7.82;;;;;;;26.49;46.46;95056.47;5064180;28;20025;-71
2021/07/21 05:30:40;;;;;;;13.70;7.90;;;;;;;26.51;46.99;95042.97;5065499;28;20024;-71
2021/07/21 05:33:05;;;;;;;14.60;7.55;;;;;;;26.52;46.25;95049.94;5061040;28;20056;-71
2021/07/21 05:35:31;;;;;;;13.15;8.00;;;;;;;25.76;46.41;94936.47;5064262;28;20055;-73
2021/07/21 05:37:56;;;;;;;10.18;7.28;;;;;;;25.95;46.36;94952.25;5063728;28;20024;-72
2021/07/21 05:40:22;;;;;;;13.23;7.93;;;;;;;26.44;46.32;95018.94;5062679;28;20041;-71
2021/07/21 05:42:47;;;;;;;12.23;7.68;;;;;;;26.64;46.54;95062.13;5056473;28;20058;-72
2021/07/21 05:45:13;;;;;;;15.07;7.78;;;;;;;25.79;46.36;94912.25;5081498;28;20017;-72
2021/07/21 05:47:39;;;;;;;11.25;7.70;;;;;;;26.71;45.82;95039.56;5060722;28;20037;-74
2021/07/21 05:50:05;;;;;;;11.85;7.80;;;;;;;26.80;45.36;95053.53;5064419;28;20032;-76
2021/07/21 05:52:31;;;;;;;11.52;7.75;;;;;;;26.75;44.37;95050.94;5060460;28;20025;-76
2021/07/21 05:54:56;;;;;;;11.52;7.10;;;;;;;26.86;44.60;95052.19;5066706;28;20048;-76
2021/07/21 05:57:22;;;;;;;10.57;7.50;;;;;;;26.82;44.16;95046.28;5062436;28;20043;-76
2021/07/21 05:59:47;;;;;;;12.75;7.15;;;;;;;26.94;43.47;95058.50;5064916;28;20024;-75
2021/07/21 06:02:13;;;;;;;13.18;7.88;;;;;;;27.04;43.45;95073.25;5060228;28;20020;-74
2021/07/21 06:04:38;;;;;;;13.35;8.07;;;;;;;27.03;43.02;95066.28;5066273;28;20039;-73
2021/07/21 06:07:06;;;;;;;11.70;7.85;;;;;;;27.12;42.83;95063.09;5057897;28;20477;-74
2021/07/21 06:09:32;;;;;;;13.80;7.78;;;;;;;26.55;42.53;94961.22;5065883;28;20405;-73
2021/07/21 06:11:58;;;;;;;11.88;7.22;;;;;;;26.34;43.22;94933.03;5065246;28;20029;-74
2021/07/21 06:14:23;;;;;;;12.43;8.05;;;;;;;26.78;42.91;95002.00;5064280;28;20077;-74
2021/07/21 06:16:49;;;;;;;15.18;7.75;;;;;;;27.32;43.10;95054.13;5063218;28;20048;-74
2021/07/21 06:19:14;;;;;;;10.70;7.80;;;;;;;27.16;42.41;95025.13;5065651;28;20070;-76
2021/07/21 06:21:40;;;;;;;13.68;7.70;;;;;;;27.08;42.65;95013.31;5061634;28;20028;-75
2021/07/21 06:24:05;;;;;;;12.35;8.13;;;;;;;26.75;42.18;94985.19;5056672;28;20031;-73
2021/07/21 06:26:31;;;;;;;10.82;7.43;;;;;;;27.41;42.49;95061.91;5052832;28;20403;-73
2021/07/21 06:28:56;;;;;;;13.95;7.53;;;;;;;27.27;42.20;95035.81;5056129;28;20028;-74
2021/07/21 06:31:22;;;;;;;11.70;7.57;;;;;;;27.28;41.79;95037.28;5054350;28;20029;-73
2021/07/21 06:33:47;;;;;;;10.48;7.45;;;;;;;27.57;41.10;95058.06;5054815;28;20121;-74
2021/07/21 06:36:14;;;;;;;12.85;7.45;;;;;;;27.26;41.26;95015.13;5050404;28;20036;-76
2021/07/21 06:38:39;;;;;;;10.93;7.78;;;;;;;27.61;41.16;95069.41;5055511;28;20094;-74
2021/07/21 06:41:05;;;;;;;9.95;7.45;;;;;;;27.65;41.26;95084.28;5049710;28;20049;-75
2021/07/21 06:43:30;;;;;;;10.52;7.18;;;;;;;27.07;40.62;95006.38;5037931;28;20490;-75
2021/07/21 06:45:56;;;;;;;13.40;7.88;;;;;;;27.53;40.89;95090.56;5049406;28;20461;-75
2021/07/21 06:48:21;;;;;;;12.65;7.50;;;;;;;27.43;40.78;95081.31;5055968;28;20495;-75
2021/07/21 06:50:47;;;;;;;13.05;7.57;;;;;;;27.33;40.99;95066.59;5051681;28;20099;-75
2021/07/21 06:53:12;;;;;;;11.98;7.78;;;;;;;27.40;40.82;95071.41;5051339;28;20021;-75
2021/07/21 06:55:38;;;;;;;13.65;7.68;;;;;;;26.78;40.98;94980.09;5050198;28;20020;-75
2021/07/21 06:58:03;;;;;;;10.07;7.10;;;;;;;27.49;40.66;95079.19;5047582;28;20025;-75
2021/07/21 07:00:29;;;;;;;14.18;7.38;;;;;;;27.17;40.13;95056.00;5050917;28;20388;-74
2021/07/21 07:02:55;;;;;;;10.60;7.25;;;;;;;27.36;39.83;95076.50;5056215;28;20410;-76
2021/07/21 07:05:20;;;;;;;11.65;7.57;;;;;;;27.20;39.98;95041.94;5044289;28;20025;-74
2021/07/21 07:07:46;;;;;;;13.00;6.88;;;;;;;27.39;39.67;95089.13;5051360;28;20040;-75
2021/07/21 07:10:11;;;;;;;11.73;7.55;;;;;;;27.28;39.72;95072.94;5049410;28;20048;-77
2021/07/21 07:12:37;;;;;;;13.00;7.72;;;;;;;27.14;39.81;95066.03;5052132;28;20621;-77
2021/07/21 07:15:04;;;;;;;11.05;7.05;;;;;;;27.25;40.18;95093.22;5067267;28;20036;-74
2021/07/21 07:17:30;;;;;;;11.68;7.05;;;;;;;27.24;40.00;95091.72;5053837;28;20043;-75
2021/07/21 07:19:55;;;;;;;11.13;6.75;;;;;;;27.09;39.69;95055.19;5053682;28;20025;-76
2021/07/21 07:22:21;;;;;;;11.98;7.25;;;;;;;26.97;39.82;95040.25;5053669;28;20063;-77
2021/07/21 07:24:47;;;;;;;12.48;6.95;;;;;;;27.24;39.39;95081.47;5051058;28;20703;-76
2021/07/21 07:27:12;;;;;;;11.02;7.13;;;;;;;26.98;39.57;95058.91;5053870;28;20029;-75
2021/07/21 07:29:37;;;;;;;13.02;7.13;;;;;;;27.15;39.81;95089.44;5057051;28;20078;-75
2021/07/21 07:32:03;;;;;;;11.10;6.50;;;;;;;27.15;40.05;95094.91;5057230;28;20046;-76
2021/07/21 07:34:29;;;;;;;11.93;7.15;;;;;;;26.89;40.42;95053.88;5057784;28;20024;-76
2021/07/21 07:36:54;;;;;;;10.57;6.43;;;;;;;27.02;40.11;95075.75;5052620;28;20651;-76
2021/07/21 07:39:21;;;;;;;11.63;7.03;;;;;;;27.20;38.75;95080.34;5058103;28;20633;-76
2021/07/21 07:41:46;;;;;;;11.75;6.88;;;;;;;27.02;38.81;95053.81;5059740;28;20044;-76
2021/07/21 07:44:12;;;;;;;9.60;6.38;;;;;;;27.06;39.31;95065.22;5052601;28;20733;-76
2021/07/21 07:46:38;;;;;;;9.95;6.35;;;;;;;27.01;39.42;95057.84;5055291;28;20423;-76
2021/07/21 07:49:04;;;;;;;12.98;6.60;;;;;;;26.93;39.41;95051.53;5055134;28;20052;-75
2021/07/21 07:51:30;;;;;;;9.82;6.43;;;;;;;26.76;39.54;95034.69;5053891;28;20522;-74
2021/07/21 07:53:56;;;;;;;10.52;6.25;;;;;;;27.08;39.11;95068.16;5060717;28;20028;-75
2021/07/21 07:56:22;;;;;;;11.93;6.30;;;;;;;27.21;38.85;95081.81;5018940;28;20032;-75
2021/07/21 07:58:47;;;;;;;11.82;7.13;;;;;;;27.20;39.08;95080.34;5052759;28;20021;-75
2021/07/21 08:01:13;;;;;;;10.88;6.60;;;;;;;27.22;38.72;95093.53;5053933;28;20032;-75
2021/07/21 08:03:38;;;;;;;11.98;6.75;;;;;;;27.06;38.66;95065.22;5052334;28;20483;-75
2021/07/21 08:06:04;;;;;;;10.93;6.82;;;;;;;27.07;38.88;95061.22;5051403;28;20527;-78
2021/07/21 08:08:29;;;;;;;10.88;6.60;;;;;;;27.15;38.76;95078.47;5049950;28;20032;-77
2021/07/21 08:10:55;;;;;;;10.93;6.72;;;;;;;27.14;39.38;95082.47;5085720;28;20043;-74
2021/07/21 08:13:20;;;;;;;13.68;6.80;;;;;;;26.71;39.77;95017.63;5068304;28;20040;-74
2021/07/21 08:15:47;;;;;;;11.45;6.30;;;;;;;27.17;39.36;95084.16;5068827;28;20020;-75
2021/07/21 08:18:13;;;;;;;11.35;6.65;;;;;;;27.21;39.33;95081.81;5056468;28;20029;-77
2021/07/21 08:20:39;;;;;;;9.63;6.60;;;;;;;27.25;39.40;95082.25;5051406;28;20086;-77
2021/07/21 08:23:05;;;;;;;12.52;7.10;;;;;;;25.98;39.10;94910.13;5072496;28;20032;-75
2021/07/21 08:25:30;;;;;;;9.32;6.32;;;;;;;26.58;38.54;94987.56;5051994;28;20036;-74
2021/07/21 08:27:56;;;;;;;11.75;6.55;;;;;;;27.06;38.73;95065.22;5050586;28;20025;-75
2021/07/21 08:30:22;;;;;;;11.02;6.55;;;;;;;26.51;38.69;94988.19;5056707;28;20048;-75
2021/07/21 08:32:49;;;;;;;11.38;6.43;;;;;;;26.33;38.62;94972.63;5049266;28;20025;-76
2021/07/21 08:35:15;;;;;;;10.70;6.22;;;;;;;26.23;38.20;94948.94;5058175;28;20505;-77
2021/07/21 08:37:40;;;;;;;8.90;6.35;;;;;;;27.24;37.94;95097.22;5051554;28;20029;-75
2021/07/21 08:40:07;;;;;;;11.90;7.03;;;;;;;27.24;38.33;95097.94;5054369;28;20028;-76
2021/07/21 08:42:33;;;;;;;8.55;6.05;;;;;;;26.01;38.21;94914.56;5055998;28;20040;-75
2021/07/21 08:44:58;;;;;;;9.90;6.72;;;;;;;27.15;38.61;95094.19;5048351;28;20017;-75
2021/07/21 08:47:24;;;;;;;11.57;6.45;;;;;;;27.06;38.21;95076.19;5031346;28;20111;-75
2021/07/21 08:49:49;;;;;;;10.23;6.25;;;;;;;27.07;37.84;95082.38;5047953;28;20468;-75
2021/07/21 08:52:16;;;;;;;11.30;6.72;;;;;;;27.16;38.09;95096.41;5049196;28;20836;-76
2021/07/21 08:54:44;;;;;;;9.27;6.05;;;;;;;27.25;38.21;95109.66;5057906;28;20053;-74
2021/07/21 08:57:11;;;;;;;9.38;6.25;;;;;;;27.17;37.95;95086.88;5058852;28;20035;-74
2021/07/21 08:59:36;;;;;;;10.30;6.55;;;;;;;26.58;38.06;94993.03;5058363;28;20016;-75
2021/07/21 09:02:02;;;;;;;11.52;6.60;;;;;;;26.97;38.32;95051.22;5038691;28;20029;-73
2021/07/21 09:04:27;;;;;;;10.68;6.65;;;;;;;27.27;38.15;95090.66;5041715;28;20017;-77
2021/07/21 09:06:53;;;;;;;8.50;6.15;;;;;;;27.22;37.97;95094.28;5074505;28;20564;-74
2021/07/21 09:09:19;;;;;;;11.75;7.13;;;;;;;26.76;37.94;95019.53;5053107;28;20055;-76
2021/07/21 09:11:44;;;;;;;21.05;9.23;;;;;;;26.73;38.50;94998.69;5054312;28;20074;-75
2021/07/21 09:14:10;;;;;;;45.70;15.80;;;;;;;27.29;39.86;95061.44;5063773;28;20097;-75
2021/07/21 09:16:35;;;;;;;54.42;18.40;;;;;;;27.25;39.40;95060.31;5062634;28;20043;-76
2021/07/21 09:19:01;;;;;;;44.33;15.80;;;;;;;27.46;39.29;95083.00;5055799;28;20039;-78
2021/07/21 09:21:26;;;;;;;34.95;13.05;;;;;;;26.89;39.06;94974.41;5059026;28;20036;-75
2021/07/21 09:24:07;;;;;;;31.77;11.73;;;;;;;27.65;38.75;95075.31;5073185;28;20036;-74
2021/07/21 09:26:39;;;;;;;28.50;11.15;;;;;;;26.54;38.47;94921.41;5050587;28;20032;-75
2021/07/21 09:29:04;;;;;;;19.67;9.50;;;;;;;27.82;37.75;95079.88;5050128;28;20596;-77
2021/07/21 09:31:37;;;;;;;15.15;8.20;;;;;;;27.71;37.61;95051.22;5055820;28;20016;-74
2021/07/21 09:34:18;;;;;;;14.60;7.45;;;;;;;27.96;37.29;95078.50;5066408;28;20059;-75
2021/07/21 09:36:43;;;;;;;15.27;8.45;;;;;;;25.93;37.32;94785.13;5056143;28;20031;-75
2021/07/21 09:39:10;;;;;;;14.82;8.25;;;;;;;27.98;37.46;95056.75;5066669;28;20021;-78
2021/07/21 09:41:38;;;;;;;12.60;7.90;;;;;;;27.66;37.07;94991.72;5056198;28;20131;-79
2021/07/21 09:44:04;;;;;;;12.80;7.68;;;;;;;27.48;36.94;94970.72;5053225;28;20024;-78
2021/07/21 09:46:32;;;;;;;11.15;7.13;;;;;;;27.47;36.88;94958.25;5053857;28;20032;-73
2021/07/21 09:48:58;;;;;;;11.05;7.20;;;;;;;28.42;36.46;95080.31;5048569;28;20025;-75
2021/07/21 09:51:29;;;;;;;10.45;7.13;;;;;;;27.82;36.59;94964.59;5054872;28;20518;-75
2021/07/21 09:53:54;;;;;;;10.98;6.93;;;;;;;28.17;35.91;94996.84;5051246;28;20127;-79
2021/07/21 09:56:32;;;;;;;10.50;7.00;;;;;;;28.32;35.62;95010.66;5050981;28;20166;-72
2021/07/21 09:59:28;;;;;;;10.48;6.97;;;;;;;28.77;36.11;95072.84;5052306;28;20491;-74
2021/07/21 10:01:54;;;;;;;10.07;7.55;;;;;;;28.85;35.30;95068.09;5051787;28;20052;-76
2021/07/21 10:04:36;;;;;;;12.38;7.50;;;;;;;28.92;35.73;95078.41;5060997;28;20023;-74
2021/07/21 10:07:11;;;;;;;9.48;6.63;;;;;;;28.37;35.05;94979.53;5065244;28;20063;-73
2021/07/21 10:09:36;;;;;;;9.95;6.93;;;;;;;28.86;35.39;95046.81;5061755;28;20039;-76
2021/07/21 10:12:14;;;;;;;10.48;7.32;;;;;;;29.15;35.41;95068.19;5035149;28;20036;-77
2021/07/21 10:14:55;;;;;;;10.75;7.10;;;;;;;29.10;35.19;95069.09;5049292;28;20487;-75
2021/07/21 10:17:21;;;;;;;11.23;6.78;;;;;;;29.09;35.05;95058.63;5055016;28;20119;-75
2021/07/21 10:19:46;;;;;;;10.32;7.03;;;;;;;29.06;34.76;95076.22;5057689;28;20433;-75
2021/07/21 10:22:12;;;;;;;11.30;6.60;;;;;;;28.72;34.85;95002.25;5058387;28;20478;-74
2021/07/21 10:24:39;;;;;;;8.65;6.10;;;;;;;29.04;35.31;95068.50;5063545;28;20027;-75
2021/07/21 10:27:04;;;;;;;12.43;7.18;;;;;;;29.13;33.72;95065.25;5063775;28;20055;-75
2021/07/21 10:29:30;;;;;;;10.73;6.93;;;;;;;28.46;34.01;94981.78;5059759;28;20016;-75
2021/07/21 10:31:55;;;;;;;9.82;6.50;;;;;;;29.05;34.49;95059.00;5066173;28;20032;-76
2021/07/21 10:34:21;;;;;;;10.70;6.03;;;;;;;29.09;34.11;95037.38;5046741;28;20418;-74
2021/07/21 10:36:48;;;;;;;10.68;6.35;;;;;;;28.78;34.66;95015.84;5065012;28;20081;-73
2021/07/21 10:39:24;;;;;;;10.77;6.82;;;;;;;28.99;34.82;95052.91;5064676;28;20533;-74
2021/07/21 10:41:49;;;;;;;10.23;6.65;;;;;;;28.34;34.28;94953.16;5062706;28;20056;-74
2021/07/21 10:44:16;;;;;;;13.95;6.78;;;;;;;29.00;34.19;95035.16;5047937;28;20037;-76
2021/07/21 10:46:45;;;;;;;10.60;6.43;;;;;;;29.12;33.91;95091.28;5060361;28;20012;-73
2021/07/21 10:49:35;;;;;;;11.85;6.80;;;;;;;29.13;33.18;95048.72;5067346;28;20123;-75
2021/07/21 10:52:23;;;;;;;;;;;;;;;29.02;33.53;95040.81;5072319;28;20238;-75
2021/07/21 11:00:14;;;;;;;9.82;6.00;;;;;;;28.81;34.19;95040.22;5060589;28;20028;-78
2021/07/21 11:02:40;;;;;;;9.95;6.32;;;;;;;28.67;34.52;95013.41;5060211;28;20020;-81
2021/07/21 11:05:08;;;;;;;10.75;6.15;;;;;;;28.75;34.64;95042.38;5038238;28;20023;-81
2021/07/21 11:07:53;;;;;;;10.68;6.28;;;;;;;28.78;34.88;95030.31;5058112;28;20033;-81
2021/07/21 11:10:38;;;;;;;10.10;6.10;;;;;;;28.82;33.31;95036.19;5058940;28;20114;-79
2021/07/21 11:13:28;;;;;;;12.85;6.28;;;;;;;28.28;33.50;94963.56;5056263;28;20013;-80
2021/07/21 11:15:57;;;;;;;8.63;5.90;;;;;;;28.68;33.99;95025.13;5066459;28;20499;-82
2021/07/21 11:18:23;;;;;;;9.57;5.88;;;;;;;28.74;34.40;95051.94;5055376;28;20112;-82
2021/07/21 11:21:07;;;;;;;9.93;5.97;;;;;;;28.76;33.47;95048.63;5058217;28;20123;-82
2021/07/21 11:23:42;;;;;;;10.02;6.20;;;;;;;28.47;33.13;94988.75;5069379;28;20029;-82
2021/07/21 11:26:36;;;;;;;9.02;5.80;;;;;;;28.75;33.37;95045.13;5063853;28;20021;-76
2021/07/21 11:29:26;;;;;;;9.38;6.00;;;;;;;28.76;32.77;95063.09;5056275;28;20040;-76
2021/07/21 11:31:54;;;;;;;9.55;6.00;;;;;;;28.77;33.90;95045.34;5068618;28;20056;-76
2021/07/21 11:34:32;;;;;;;10.63;6.15;;;;;;;28.74;33.40;95040.94;5069055;28;20086;-77
2021/07/21 11:36:58;;;;;;;9.70;6.00;;;;;;;28.62;33.81;95016.28;5067870;28;20058;-75